sensor_id;sensor_type;location;lat;lon;timestamp;P1;durP1;ratioP1;P2;durP2;ratioP2
2213;SDS011;1113;42.018;23.986;2023-05-29T00:00:57;10.40;;;8.00;;
2213;SDS011;1113;42.018;23.986;2023-05-29T00:03:25;10.83;;;6.67;;
2213;SDS011;1113;42.018;23.986;2023-05-29T00:05:53;9.33;;;6.90;;
2213;SDS011;1113;42.018;23.986;2023-05-29T00:08:19;8.23;;;6.30;;
2213;SDS011;1113;42.018;23.986;2023-05-29T00:10:46;9.20;;;5.90;;
2213;SDS011;1113;42.018;23.986;2023-05-29T00:13:13;7.70;;;5.80;;
2213;SDS011;1113;42.018;23.986;2023-05-29T00:15:40;9.50;;;5.40;;
2213;SDS011;1113;42.018;23.986;2023-05-29T00:18:06;7.07;;;5.10;;
2213;SDS011;1113;42.018;23.986;2023-05-29T00:20:33;7.73;;;5.07;;
2213;SDS011;1113;42.018;23.986;2023-05-29T00:23:02;5.80;;;4.70;;
2213;SDS011;1113;42.018;23.986;2023-05-29T00:25:31;7.70;;;5.00;;
2213;SDS011;1113;42.018;23.986;2023-05-29T00:27:58;11.57;;;6.07;;
2213;SDS011;1113;42.018;23.986;2023-05-29T00:30:25;8.83;;;6.70;;
2213;SDS011;1113;42.018;23.986;2023-05-29T00:32:51;8.97;;;6.23;;
2213;SDS011;1113;42.018;23.986;2023-05-29T00:35:19;8.80;;;6.50;;
2213;SDS011;1113;42.018;23.986;2023-05-29T00:37:46;10.50;;;7.50;;
2213;SDS011;1113;42.018;23.986;2023-05-29T00:40:14;8.70;;;6.20;;
2213;SDS011;1113;42.018;23.986;2023-05-29T00:42:41;9.60;;;6.20;;
2213;SDS011;1113;42.018;23.986;2023-05-29T00:45:08;12.93;;;6.87;;
2213;SDS011;1113;42.018;23.986;2023-05-29T00:47:36;7.20;;;5.80;;
2213;SDS011;1113;42.018;23.986;2023-05-29T00:50:03;8.43;;;5.80;;
2213;SDS011;1113;42.018;23.986;2023-05-29T00:52:32;9.70;;;6.93;;
2213;SDS011;1113;42.018;23.986;2023-05-29T00:54:59;15.27;;;7.50;;
2213;SDS011;1113;42.018;23.986;2023-05-29T00:57:28;9.33;;;6.20;;
2213;SDS011;1113;42.018;23.986;2023-05-29T00:59:55;9.70;;;6.10;;
2213;SDS011;1113;42.018;23.986;2023-05-29T01:02:23;10.57;;;6.07;;
2213;SDS011;1113;42.018;23.986;2023-05-29T01:04:51;7.90;;;5.83;;
2213;SDS011;1113;42.018;23.986;2023-05-29T01:07:19;9.90;;;6.10;;
2213;SDS011;1113;42.018;23.986;2023-05-29T01:09:46;10.30;;;6.90;;
2213;SDS011;1113;42.018;23.986;2023-05-29T01:12:16;9.93;;;6.77;;
2213;SDS011;1113;42.018;23.986;2023-05-29T01:14:57;8.30;;;6.07;;
2213;SDS011;1113;42.018;23.986;2023-05-29T01:17:38;7.90;;;5.70;;
2213;SDS011;1113;42.018;23.986;2023-05-29T01:20:18;8.37;;;6.40;;
2213;SDS011;1113;42.018;23.986;2023-05-29T01:23:00;7.10;;;5.77;;
2213;SDS011;1113;42.018;23.986;2023-05-29T01:25:57;7.63;;;6.10;;
2213;SDS011;1113;42.018;23.986;2023-05-29T01:28:37;8.10;;;5.80;;
2213;SDS011;1113;42.018;23.986;2023-05-29T01:31:08;10.77;;;6.43;;
2213;SDS011;1113;42.018;23.986;2023-05-29T01:33:38;8.53;;;6.50;;
2213;SDS011;1113;42.018;23.986;2023-05-29T01:36:05;9.37;;;6.40;;
2213;SDS011;1113;42.018;23.986;2023-05-29T01:38:33;9.17;;;6.63;;
2213;SDS011;1113;42.018;23.986;2023-05-29T01:41:00;8.43;;;6.90;;
2213;SDS011;1113;42.018;23.986;2023-05-29T01:43:27;10.33;;;6.40;;
2213;SDS011;1113;42.018;23.986;2023-05-29T01:45:56;10.13;;;6.93;;
2213;SDS011;1113;42.018;23.986;2023-05-29T01:48:23;8.60;;;6.97;;
2213;SDS011;1113;42.018;23.986;2023-05-29T01:50:51;11.53;;;7.70;;
2213;SDS011;1113;42.018;23.986;2023-05-29T01:53:18;12.47;;;7.37;;
2213;SDS011;1113;42.018;23.986;2023-05-29T01:55:45;9.07;;;6.83;;
2213;SDS011;1113;42.018;23.986;2023-05-29T01:58:12;10.13;;;6.80;;
2213;SDS011;1113;42.018;23.986;2023-05-29T02:00:41;11.20;;;6.70;;
2213;SDS011;1113;42.018;23.986;2023-05-29T02:03:09;9.10;;;6.20;;
2213;SDS011;1113;42.018;23.986;2023-05-29T02:05:36;8.37;;;6.40;;
2213;SDS011;1113;42.018;23.986;2023-05-29T02:08:03;8.70;;;6.27;;
2213;SDS011;1113;42.018;23.986;2023-05-29T02:10:30;8.63;;;6.30;;
2213;SDS011;1113;42.018;23.986;2023-05-29T02:12:57;6.83;;;5.13;;
2213;SDS011;1113;42.018;23.986;2023-05-29T02:15:24;9.83;;;6.13;;
2213;SDS011;1113;42.018;23.986;2023-05-29T02:17:51;7.27;;;6.30;;
2213;SDS011;1113;42.018;23.986;2023-05-29T02:20:20;7.60;;;5.27;;
2213;SDS011;1113;42.018;23.986;2023-05-29T02:22:46;8.00;;;5.87;;
2213;SDS011;1113;42.018;23.986;2023-05-29T02:25:13;7.20;;;5.43;;
2213;SDS011;1113;42.018;23.986;2023-05-29T02:27:40;8.60;;;5.67;;
2213;SDS011;1113;42.018;23.986;2023-05-29T02:30:07;7.63;;;6.00;;
2213;SDS011;1113;42.018;23.986;2023-05-29T02:32:34;7.07;;;5.20;;
2213;SDS011;1113;42.018;23.986;2023-05-29T02:35:01;9.67;;;6.70;;
2213;SDS011;1113;42.018;23.986;2023-05-29T02:37:30;8.10;;;4.90;;
2213;SDS011;1113;42.018;23.986;2023-05-29T02:39:56;9.13;;;6.00;;
2213;SDS011;1113;42.018;23.986;2023-05-29T02:42:23;8.50;;;6.40;;
2213;SDS011;1113;42.018;23.986;2023-05-29T02:44:50;7.63;;;5.80;;
2213;SDS011;1113;42.018;23.986;2023-05-29T02:47:17;7.93;;;6.37;;
2213;SDS011;1113;42.018;23.986;2023-05-29T02:49:43;9.00;;;6.10;;
2213;SDS011;1113;42.018;23.986;2023-05-29T02:52:10;7.13;;;6.40;;
2213;SDS011;1113;42.018;23.986;2023-05-29T02:54:38;7.10;;;5.53;;
2213;SDS011;1113;42.018;23.986;2023-05-29T02:57:05;10.47;;;6.17;;
2213;SDS011;1113;42.018;23.986;2023-05-29T02:59:32;9.20;;;6.00;;
2213;SDS011;1113;42.018;23.986;2023-05-29T03:01:59;7.30;;;5.70;;
2213;SDS011;1113;42.018;23.986;2023-05-29T03:04:26;9.03;;;6.73;;
2213;SDS011;1113;42.018;23.986;2023-05-29T03:06:53;8.33;;;6.30;;
2213;SDS011;1113;42.018;23.986;2023-05-29T03:09:20;7.40;;;6.00;;
2213;SDS011;1113;42.018;23.986;2023-05-29T03:11:48;9.50;;;6.40;;
2213;SDS011;1113;42.018;23.986;2023-05-29T03:14:15;9.93;;;6.87;;
2213;SDS011;1113;42.018;23.986;2023-05-29T03:16:43;7.83;;;6.60;;
2213;SDS011;1113;42.018;23.986;2023-05-29T03:19:10;8.77;;;6.57;;
2213;SDS011;1113;42.018;23.986;2023-05-29T03:21:37;9.30;;;6.90;;
2213;SDS011;1113;42.018;23.986;2023-05-29T03:24:04;6.13;;;5.27;;
2213;SDS011;1113;42.018;23.986;2023-05-29T03:26:31;8.20;;;5.97;;
2213;SDS011;1113;42.018;23.986;2023-05-29T03:29:00;10.73;;;7.87;;
2213;SDS011;1113;42.018;23.986;2023-05-29T03:31:26;9.20;;;7.10;;
2213;SDS011;1113;42.018;23.986;2023-05-29T03:33:53;9.10;;;7.23;;
2213;SDS011;1113;42.018;23.986;2023-05-29T03:36:20;9.20;;;7.03;;
2213;SDS011;1113;42.018;23.986;2023-05-29T03:38:47;9.53;;;7.53;;
2213;SDS011;1113;42.018;23.986;2023-05-29T03:41:14;9.47;;;6.20;;
2213;SDS011;1113;42.018;23.986;2023-05-29T03:43:40;8.90;;;6.53;;
2213;SDS011;1113;42.018;23.986;2023-05-29T03:46:09;8.87;;;6.43;;
2213;SDS011;1113;42.018;23.986;2023-05-29T03:48:35;8.63;;;6.80;;
2213;SDS011;1113;42.018;23.986;2023-05-29T03:51:02;14.03;;;8.43;;
2213;SDS011;1113;42.018;23.986;2023-05-29T03:53:30;10.43;;;7.83;;
2213;SDS011;1113;42.018;23.986;2023-05-29T03:55:56;13.10;;;8.37;;
2213;SDS011;1113;42.018;23.986;2023-05-29T03:58:23;14.07;;;8.23;;
2213;SDS011;1113;42.018;23.986;2023-05-29T04:00:50;10.90;;;8.33;;
2213;SDS011;1113;42.018;23.986;2023-05-29T04:03:18;10.20;;;7.90;;
2213;SDS011;1113;42.018;23.986;2023-05-29T04:05:45;9.97;;;8.10;;
2213;SDS011;1113;42.018;23.986;2023-05-29T04:08:12;11.13;;;8.30;;
2213;SDS011;1113;42.018;23.986;2023-05-29T04:10:38;11.17;;;7.00;;
2213;SDS011;1113;42.018;23.986;2023-05-29T04:13:05;11.10;;;7.60;;
2213;SDS011;1113;42.018;23.986;2023-05-29T04:15:32;8.10;;;6.70;;
2213;SDS011;1113;42.018;23.986;2023-05-29T04:17:59;10.10;;;7.57;;
2213;SDS011;1113;42.018;23.986;2023-05-29T04:20:28;7.83;;;6.70;;
2213;SDS011;1113;42.018;23.986;2023-05-29T04:22:54;14.53;;;13.03;;
2213;SDS011;1113;42.018;23.986;2023-05-29T04:25:21;15.20;;;9.80;;
2213;SDS011;1113;42.018;23.986;2023-05-29T04:27:48;11.50;;;9.10;;
2213;SDS011;1113;42.018;23.986;2023-05-29T04:30:15;12.57;;;10.30;;
2213;SDS011;1113;42.018;23.986;2023-05-29T04:32:42;13.27;;;9.83;;
2213;SDS011;1113;42.018;23.986;2023-05-29T04:35:09;14.20;;;9.57;;
2213;SDS011;1113;42.018;23.986;2023-05-29T04:37:38;27.27;;;21.70;;
2213;SDS011;1113;42.018;23.986;2023-05-29T04:40:05;24.60;;;17.80;;
2213;SDS011;1113;42.018;23.986;2023-05-29T04:42:35;13.33;;;10.00;;
2213;SDS011;1113;42.018;23.986;2023-05-29T04:45:04;14.10;;;10.60;;
2213;SDS011;1113;42.018;23.986;2023-05-29T04:47:31;17.53;;;12.23;;
2213;SDS011;1113;42.018;23.986;2023-05-29T04:49:58;15.60;;;10.20;;
2213;SDS011;1113;42.018;23.986;2023-05-29T04:52:25;16.90;;;11.43;;
2213;SDS011;1113;42.018;23.986;2023-05-29T04:54:54;13.50;;;9.97;;
2213;SDS011;1113;42.018;23.986;2023-05-29T04:57:21;10.47;;;8.33;;
2213;SDS011;1113;42.018;23.986;2023-05-29T04:59:48;10.60;;;9.03;;
2213;SDS011;1113;42.018;23.986;2023-05-29T05:02:15;13.77;;;9.03;;
2213;SDS011;1113;42.018;23.986;2023-05-29T05:04:42;12.73;;;8.63;;
2213;SDS011;1113;42.018;23.986;2023-05-29T05:07:10;12.17;;;8.13;;
2213;SDS011;1113;42.018;23.986;2023-05-29T05:09:37;10.33;;;7.67;;
2213;SDS011;1113;42.018;23.986;2023-05-29T05:12:05;12.40;;;7.70;;
2213;SDS011;1113;42.018;23.986;2023-05-29T05:14:32;11.80;;;7.47;;
2213;SDS011;1113;42.018;23.986;2023-05-29T05:16:59;14.93;;;8.70;;
2213;SDS011;1113;42.018;23.986;2023-05-29T05:19:26;10.50;;;7.50;;
2213;SDS011;1113;42.018;23.986;2023-05-29T05:21:53;12.20;;;7.37;;
2213;SDS011;1113;42.018;23.986;2023-05-29T05:24:19;10.10;;;7.50;;
2213;SDS011;1113;42.018;23.986;2023-05-29T05:26:46;10.37;;;7.10;;
2213;SDS011;1113;42.018;23.986;2023-05-29T05:29:14;11.77;;;8.37;;
2213;SDS011;1113;42.018;23.986;2023-05-29T05:31:41;17.43;;;12.50;;
2213;SDS011;1113;42.018;23.986;2023-05-29T05:34:08;18.90;;;16.60;;
2213;SDS011;1113;42.018;23.986;2023-05-29T05:36:35;18.63;;;12.87;;
2213;SDS011;1113;42.018;23.986;2023-05-29T05:39:01;11.83;;;10.53;;
2213;SDS011;1113;42.018;23.986;2023-05-29T05:41:28;12.30;;;10.37;;
2213;SDS011;1113;42.018;23.986;2023-05-29T05:43:55;9.03;;;7.27;;
2213;SDS011;1113;42.018;23.986;2023-05-29T05:46:23;8.93;;;7.10;;
2213;SDS011;1113;42.018;23.986;2023-05-29T05:48:50;6.60;;;5.17;;
2213;SDS011;1113;42.018;23.986;2023-05-29T05:51:18;8.93;;;6.30;;
2213;SDS011;1113;42.018;23.986;2023-05-29T05:53:44;10.80;;;9.07;;
2213;SDS011;1113;42.018;23.986;2023-05-29T05:56:11;11.73;;;8.43;;
2213;SDS011;1113;42.018;23.986;2023-05-29T05:58:38;15.80;;;11.77;;
2213;SDS011;1113;42.018;23.986;2023-05-29T06:01:05;15.93;;;11.33;;
2213;SDS011;1113;42.018;23.986;2023-05-29T06:03:34;16.67;;;11.30;;
2213;SDS011;1113;42.018;23.986;2023-05-29T06:06:02;15.53;;;11.30;;
2213;SDS011;1113;42.018;23.986;2023-05-29T06:08:30;13.53;;;10.90;;
2213;SDS011;1113;42.018;23.986;2023-05-29T06:10:57;13.40;;;10.40;;
2213;SDS011;1113;42.018;23.986;2023-05-29T06:13:24;14.13;;;11.63;;
2213;SDS011;1113;42.018;23.986;2023-05-29T06:15:51;13.73;;;9.70;;
2213;SDS011;1113;42.018;23.986;2023-05-29T06:18:18;11.63;;;10.03;;
2213;SDS011;1113;42.018;23.986;2023-05-29T06:20:46;12.13;;;9.83;;
2213;SDS011;1113;42.018;23.986;2023-05-29T06:23:13;11.57;;;9.33;;
2213;SDS011;1113;42.018;23.986;2023-05-29T06:25:39;14.40;;;10.63;;
2213;SDS011;1113;42.018;23.986;2023-05-29T06:28:06;11.83;;;9.73;;
2213;SDS011;1113;42.018;23.986;2023-05-29T06:30:33;13.73;;;10.50;;
2213;SDS011;1113;42.018;23.986;2023-05-29T06:33:00;13.90;;;10.00;;
2213;SDS011;1113;42.018;23.986;2023-05-29T06:35:27;14.60;;;11.67;;
2213;SDS011;1113;42.018;23.986;2023-05-29T06:37:55;18.47;;;11.20;;
2213;SDS011;1113;42.018;23.986;2023-05-29T06:40:22;36.87;;;23.93;;
2213;SDS011;1113;42.018;23.986;2023-05-29T06:42:49;29.47;;;20.53;;
2213;SDS011;1113;42.018;23.986;2023-05-29T06:45:16;28.07;;;21.07;;
2213;SDS011;1113;42.018;23.986;2023-05-29T06:47:43;29.67;;;21.33;;
2213;SDS011;1113;42.018;23.986;2023-05-29T06:50:10;35.20;;;23.30;;
2213;SDS011;1113;42.018;23.986;2023-05-29T06:52:37;22.87;;;17.67;;
2213;SDS011;1113;42.018;23.986;2023-05-29T06:55:05;30.80;;;19.87;;
2213;SDS011;1113;42.018;23.986;2023-05-29T06:57:34;35.37;;;20.20;;
2213;SDS011;1113;42.018;23.986;2023-05-29T07:00:01;27.60;;;20.30;;
2213;SDS011;1113;42.018;23.986;2023-05-29T07:02:30;25.80;;;19.57;;
2213;SDS011;1113;42.018;23.986;2023-05-29T07:04:57;24.17;;;18.20;;
2213;SDS011;1113;42.018;23.986;2023-05-29T07:07:24;28.37;;;19.90;;
2213;SDS011;1113;42.018;23.986;2023-05-29T07:09:51;25.63;;;17.53;;
2213;SDS011;1113;42.018;23.986;2023-05-29T07:12:19;34.10;;;20.30;;
2213;SDS011;1113;42.018;23.986;2023-05-29T07:14:46;26.57;;;18.47;;
2213;SDS011;1113;42.018;23.986;2023-05-29T07:17:13;27.30;;;19.00;;
2213;SDS011;1113;42.018;23.986;2023-05-29T07:19:40;23.67;;;18.80;;
2213;SDS011;1113;42.018;23.986;2023-05-29T07:22:06;22.20;;;16.70;;
2213;SDS011;1113;42.018;23.986;2023-05-29T07:24:33;20.13;;;15.67;;
2213;SDS011;1113;42.018;23.986;2023-05-29T07:27:00;19.50;;;15.63;;
2213;SDS011;1113;42.018;23.986;2023-05-29T07:29:28;18.73;;;14.97;;
2213;SDS011;1113;42.018;23.986;2023-05-29T07:31:55;17.33;;;12.80;;
2213;SDS011;1113;42.018;23.986;2023-05-29T07:34:22;29.50;;;23.07;;
2213;SDS011;1113;42.018;23.986;2023-05-29T07:36:59;29.80;;;21.13;;
2213;SDS011;1113;42.018;23.986;2023-05-29T07:39:27;30.97;;;21.23;;
2213;SDS011;1113;42.018;23.986;2023-05-29T07:41:54;29.60;;;21.00;;
2213;SDS011;1113;42.018;23.986;2023-05-29T07:44:21;27.27;;;19.83;;
2213;SDS011;1113;42.018;23.986;2023-05-29T07:46:50;30.13;;;26.53;;
2213;SDS011;1113;42.018;23.986;2023-05-29T07:49:16;22.47;;;17.70;;
2213;SDS011;1113;42.018;23.986;2023-05-29T07:51:43;27.47;;;19.77;;
2213;SDS011;1113;42.018;23.986;2023-05-29T07:54:10;16.40;;;12.83;;
2213;SDS011;1113;42.018;23.986;2023-05-29T07:56:37;13.60;;;10.57;;
2213;SDS011;1113;42.018;23.986;2023-05-29T07:59:05;19.00;;;13.67;;
2213;SDS011;1113;42.018;23.986;2023-05-29T08:01:34;16.67;;;13.70;;
2213;SDS011;1113;42.018;23.986;2023-05-29T08:04:02;12.47;;;9.70;;
2213;SDS011;1113;42.018;23.986;2023-05-29T08:06:28;7.47;;;6.23;;
2213;SDS011;1113;42.018;23.986;2023-05-29T08:08:57;10.67;;;8.20;;
2213;SDS011;1113;42.018;23.986;2023-05-29T08:11:24;10.63;;;5.50;;
2213;SDS011;1113;42.018;23.986;2023-05-29T08:13:51;10.20;;;6.53;;
2213;SDS011;1113;42.018;23.986;2023-05-29T08:16:18;8.03;;;6.87;;
2213;SDS011;1113;42.018;23.986;2023-05-29T08:18:47;11.73;;;8.00;;
2213;SDS011;1113;42.018;23.986;2023-05-29T08:21:18;10.33;;;7.37;;
2213;SDS011;1113;42.018;23.986;2023-05-29T08:23:45;10.57;;;8.00;;
2213;SDS011;1113;42.018;23.986;2023-05-29T08:26:12;9.40;;;7.03;;
2213;SDS011;1113;42.018;23.986;2023-05-29T08:28:38;13.63;;;6.67;;
2213;SDS011;1113;42.018;23.986;2023-05-29T08:31:05;9.27;;;6.97;;
2213;SDS011;1113;42.018;23.986;2023-05-29T08:33:32;9.07;;;7.40;;
2213;SDS011;1113;42.018;23.986;2023-05-29T08:35:59;9.20;;;7.50;;
2213;SDS011;1113;42.018;23.986;2023-05-29T08:38:28;8.97;;;7.10;;
2213;SDS011;1113;42.018;23.986;2023-05-29T08:40:55;10.30;;;7.47;;
2213;SDS011;1113;42.018;23.986;2023-05-29T08:43:23;10.03;;;7.93;;
2213;SDS011;1113;42.018;23.986;2023-05-29T08:45:53;12.17;;;8.43;;
2213;SDS011;1113;42.018;23.986;2023-05-29T08:48:25;11.07;;;7.37;;
2213;SDS011;1113;42.018;23.986;2023-05-29T08:50:54;7.63;;;6.30;;
2213;SDS011;1113;42.018;23.986;2023-05-29T08:53:22;10.17;;;7.63;;
2213;SDS011;1113;42.018;23.986;2023-05-29T08:55:51;7.33;;;5.03;;
2213;SDS011;1113;42.018;23.986;2023-05-29T08:58:20;10.43;;;6.67;;
2213;SDS011;1113;42.018;23.986;2023-05-29T09:00:48;8.67;;;5.77;;
2213;SDS011;1113;42.018;23.986;2023-05-29T09:03:15;18.33;;;7.17;;
2213;SDS011;1113;42.018;23.986;2023-05-29T09:05:42;9.43;;;6.83;;
2213;SDS011;1113;42.018;23.986;2023-05-29T09:08:09;7.80;;;6.40;;
2213;SDS011;1113;42.018;23.986;2023-05-29T09:10:37;7.13;;;5.63;;
2213;SDS011;1113;42.018;23.986;2023-05-29T09:13:05;6.80;;;5.50;;
2213;SDS011;1113;42.018;23.986;2023-05-29T09:15:34;7.50;;;6.07;;
2213;SDS011;1113;42.018;23.986;2023-05-29T09:18:01;8.70;;;6.70;;
2213;SDS011;1113;42.018;23.986;2023-05-29T09:20:30;7.97;;;6.37;;
2213;SDS011;1113;42.018;23.986;2023-05-29T09:22:57;9.63;;;7.17;;
2213;SDS011;1113;42.018;23.986;2023-05-29T09:25:26;10.30;;;6.70;;
2213;SDS011;1113;42.018;23.986;2023-05-29T09:27:58;8.93;;;6.57;;
2213;SDS011;1113;42.018;23.986;2023-05-29T09:30:33;9.20;;;7.40;;
2213;SDS011;1113;42.018;23.986;2023-05-29T09:33:02;9.23;;;6.13;;
2213;SDS011;1113;42.018;23.986;2023-05-29T09:35:36;8.93;;;6.30;;
2213;SDS011;1113;42.018;23.986;2023-05-29T09:38:05;7.80;;;4.70;;
2213;SDS011;1113;42.018;23.986;2023-05-29T09:40:32;9.37;;;4.83;;
2213;SDS011;1113;42.018;23.986;2023-05-29T09:43:03;7.37;;;6.10;;
2213;SDS011;1113;42.018;23.986;2023-05-29T09:45:33;7.30;;;5.20;;
2213;SDS011;1113;42.018;23.986;2023-05-29T09:48:04;5.70;;;5.10;;
2213;SDS011;1113;42.018;23.986;2023-05-29T09:50:32;8.17;;;6.20;;
2213;SDS011;1113;42.018;23.986;2023-05-29T09:53:00;10.07;;;7.00;;
2213;SDS011;1113;42.018;23.986;2023-05-29T09:55:28;8.87;;;7.17;;
2213;SDS011;1113;42.018;23.986;2023-05-29T09:57:57;6.50;;;4.70;;
2213;SDS011;1113;42.018;23.986;2023-05-29T10:00:25;8.20;;;7.10;;
2213;SDS011;1113;42.018;23.986;2023-05-29T10:02:53;8.83;;;5.40;;
2213;SDS011;1113;42.018;23.986;2023-05-29T10:05:20;8.10;;;5.70;;
2213;SDS011;1113;42.018;23.986;2023-05-29T10:07:47;7.10;;;5.17;;
2213;SDS011;1113;42.018;23.986;2023-05-29T10:10:18;9.50;;;5.17;;
2213;SDS011;1113;42.018;23.986;2023-05-29T10:12:47;11.03;;;6.60;;
2213;SDS011;1113;42.018;23.986;2023-05-29T10:15:15;8.20;;;6.53;;
2213;SDS011;1113;42.018;23.986;2023-05-29T10:17:52;7.13;;;5.53;;
2213;SDS011;1113;42.018;23.986;2023-05-29T10:20:25;7.17;;;5.80;;
2213;SDS011;1113;42.018;23.986;2023-05-29T10:22:54;9.13;;;5.10;;
2213;SDS011;1113;42.018;23.986;2023-05-29T10:25:25;7.40;;;4.57;;
2213;SDS011;1113;42.018;23.986;2023-05-29T10:27:55;6.77;;;4.57;;
2213;SDS011;1113;42.018;23.986;2023-05-29T10:30:25;7.73;;;4.50;;
2213;SDS011;1113;42.018;23.986;2023-05-29T10:33:13;7.67;;;4.53;;
2213;SDS011;1113;42.018;23.986;2023-05-29T10:35:53;9.90;;;4.67;;
2213;SDS011;1113;42.018;23.986;2023-05-29T10:38:23;4.37;;;3.67;;
2213;SDS011;1113;42.018;23.986;2023-05-29T10:40:51;5.57;;;4.60;;
2213;SDS011;1113;42.018;23.986;2023-05-29T10:43:31;5.57;;;4.70;;
2213;SDS011;1113;42.018;23.986;2023-05-29T10:45:58;8.10;;;4.30;;
2213;SDS011;1113;42.018;23.986;2023-05-29T10:48:41;9.93;;;4.93;;
2213;SDS011;1113;42.018;23.986;2023-05-29T10:51:08;6.00;;;4.57;;
2213;SDS011;1113;42.018;23.986;2023-05-29T10:53:50;6.57;;;3.90;;
2213;SDS011;1113;42.018;23.986;2023-05-29T10:56:21;5.40;;;4.17;;
2213;SDS011;1113;42.018;23.986;2023-05-29T10:58:55;6.63;;;4.70;;
2213;SDS011;1113;42.018;23.986;2023-05-29T11:01:22;6.67;;;4.97;;
2213;SDS011;1113;42.018;23.986;2023-05-29T11:03:53;8.67;;;5.40;;
2213;SDS011;1113;42.018;23.986;2023-05-29T11:06:21;9.57;;;4.90;;
2213;SDS011;1113;42.018;23.986;2023-05-29T11:08:53;4.40;;;3.60;;
2213;SDS011;1113;42.018;23.986;2023-05-29T11:11:28;5.40;;;3.80;;
2213;SDS011;1113;42.018;23.986;2023-05-29T11:14:00;6.67;;;5.00;;
2213;SDS011;1113;42.018;23.986;2023-05-29T11:16:36;8.30;;;4.30;;
2213;SDS011;1113;42.018;23.986;2023-05-29T11:19:05;5.37;;;3.97;;
2213;SDS011;1113;42.018;23.986;2023-05-29T11:21:40;5.33;;;3.80;;
2213;SDS011;1113;42.018;23.986;2023-05-29T11:24:21;5.70;;;3.87;;
2213;SDS011;1113;42.018;23.986;2023-05-29T11:26:50;6.40;;;4.17;;
2213;SDS011;1113;42.018;23.986;2023-05-29T11:29:21;7.23;;;4.17;;
2213;SDS011;1113;42.018;23.986;2023-05-29T11:31:49;6.00;;;3.70;;
2213;SDS011;1113;42.018;23.986;2023-05-29T11:34:26;5.27;;;4.57;;
2213;SDS011;1113;42.018;23.986;2023-05-29T11:36:56;5.47;;;4.47;;
2213;SDS011;1113;42.018;23.986;2023-05-29T11:39:23;5.20;;;4.07;;
2213;SDS011;1113;42.018;23.986;2023-05-29T11:41:50;7.73;;;4.70;;
2213;SDS011;1113;42.018;23.986;2023-05-29T11:44:18;6.90;;;4.30;;
2213;SDS011;1113;42.018;23.986;2023-05-29T11:46:45;4.73;;;3.83;;
2213;SDS011;1113;42.018;23.986;2023-05-29T11:49:11;5.27;;;3.97;;
2213;SDS011;1113;42.018;23.986;2023-05-29T11:51:42;7.63;;;4.33;;
2213;SDS011;1113;42.018;23.986;2023-05-29T11:54:11;5.03;;;4.03;;
2213;SDS011;1113;42.018;23.986;2023-05-29T11:56:38;6.87;;;4.87;;
2213;SDS011;1113;42.018;23.986;2023-05-29T11:59:06;8.00;;;5.03;;
2213;SDS011;1113;42.018;23.986;2023-05-29T12:01:37;6.10;;;5.10;;
2213;SDS011;1113;42.018;23.986;2023-05-29T12:04:13;6.23;;;4.63;;
2213;SDS011;1113;42.018;23.986;2023-05-29T12:06:40;6.73;;;4.40;;
2213;SDS011;1113;42.018;23.986;2023-05-29T12:09:08;8.80;;;5.53;;
2213;SDS011;1113;42.018;23.986;2023-05-29T12:11:35;7.90;;;5.10;;
2213;SDS011;1113;42.018;23.986;2023-05-29T12:14:02;9.27;;;5.03;;
2213;SDS011;1113;42.018;23.986;2023-05-29T12:16:30;10.27;;;5.23;;
2213;SDS011;1113;42.018;23.986;2023-05-29T12:18:58;9.33;;;5.10;;
2213;SDS011;1113;42.018;23.986;2023-05-29T12:21:26;7.43;;;5.57;;
2213;SDS011;1113;42.018;23.986;2023-05-29T12:23:54;8.77;;;5.83;;
2213;SDS011;1113;42.018;23.986;2023-05-29T12:26:23;6.60;;;5.07;;
2213;SDS011;1113;42.018;23.986;2023-05-29T12:28:50;8.40;;;5.57;;
2213;SDS011;1113;42.018;23.986;2023-05-29T12:31:26;7.00;;;5.57;;
2213;SDS011;1113;42.018;23.986;2023-05-29T12:33:58;10.40;;;5.90;;
2213;SDS011;1113;42.018;23.986;2023-05-29T12:36:26;7.57;;;5.40;;
2213;SDS011;1113;42.018;23.986;2023-05-29T12:38:52;7.57;;;5.30;;
2213;SDS011;1113;42.018;23.986;2023-05-29T12:41:25;6.50;;;5.43;;
2213;SDS011;1113;42.018;23.986;2023-05-29T12:43:53;9.40;;;5.00;;
2213;SDS011;1113;42.018;23.986;2023-05-29T12:46:21;7.67;;;4.33;;
2213;SDS011;1113;42.018;23.986;2023-05-29T12:48:49;10.37;;;5.03;;
2213;SDS011;1113;42.018;23.986;2023-05-29T12:51:17;5.60;;;4.43;;
2213;SDS011;1113;42.018;23.986;2023-05-29T12:53:48;7.90;;;4.57;;
2213;SDS011;1113;42.018;23.986;2023-05-29T12:56:15;9.50;;;4.50;;
2213;SDS011;1113;42.018;23.986;2023-05-29T12:58:43;5.50;;;3.90;;
2213;SDS011;1113;42.018;23.986;2023-05-29T13:01:12;11.90;;;4.20;;
2213;SDS011;1113;42.018;23.986;2023-05-29T13:03:40;7.80;;;4.97;;
2213;SDS011;1113;42.018;23.986;2023-05-29T13:06:07;7.07;;;3.90;;
2213;SDS011;1113;42.018;23.986;2023-05-29T13:08:34;5.47;;;3.90;;
2213;SDS011;1113;42.018;23.986;2023-05-29T13:11:01;5.37;;;3.27;;
2213;SDS011;1113;42.018;23.986;2023-05-29T13:13:27;7.13;;;4.30;;
2213;SDS011;1113;42.018;23.986;2023-05-29T13:15:56;7.17;;;3.70;;
2213;SDS011;1113;42.018;23.986;2023-05-29T13:18:22;8.53;;;4.90;;
2213;SDS011;1113;42.018;23.986;2023-05-29T13:20:49;7.80;;;3.83;;
2213;SDS011;1113;42.018;23.986;2023-05-29T13:23:16;6.67;;;4.30;;
2213;SDS011;1113;42.018;23.986;2023-05-29T13:25:43;10.00;;;4.50;;
2213;SDS011;1113;42.018;23.986;2023-05-29T13:28:10;8.57;;;4.40;;
2213;SDS011;1113;42.018;23.986;2023-05-29T13:30:37;7.37;;;5.43;;
2213;SDS011;1113;42.018;23.986;2023-05-29T13:33:05;8.67;;;5.63;;
2213;SDS011;1113;42.018;23.986;2023-05-29T13:35:32;6.27;;;3.73;;
2213;SDS011;1113;42.018;23.986;2023-05-29T13:37:59;3.93;;;2.90;;
2213;SDS011;1113;42.018;23.986;2023-05-29T13:40:26;7.50;;;3.80;;
2213;SDS011;1113;42.018;23.986;2023-05-29T13:42:53;6.87;;;4.43;;
2213;SDS011;1113;42.018;23.986;2023-05-29T13:45:20;6.07;;;3.90;;
2213;SDS011;1113;42.018;23.986;2023-05-29T13:47:47;6.47;;;3.77;;
2213;SDS011;1113;42.018;23.986;2023-05-29T13:50:15;7.20;;;3.30;;
2213;SDS011;1113;42.018;23.986;2023-05-29T13:52:42;6.07;;;3.60;;
2213;SDS011;1113;42.018;23.986;2023-05-29T13:55:08;5.70;;;3.20;;
2213;SDS011;1113;42.018;23.986;2023-05-29T13:57:35;4.60;;;3.40;;
2213;SDS011;1113;42.018;23.986;2023-05-29T14:00:02;3.40;;;2.47;;
2213;SDS011;1113;42.018;23.986;2023-05-29T14:02:30;4.97;;;3.07;;
2213;SDS011;1113;42.018;23.986;2023-05-29T14:04:57;4.63;;;2.23;;
2213;SDS011;1113;42.018;23.986;2023-05-29T14:07:25;4.30;;;2.80;;
2213;SDS011;1113;42.018;23.986;2023-05-29T14:09:52;8.10;;;4.30;;
2213;SDS011;1113;42.018;23.986;2023-05-29T14:12:19;4.60;;;2.10;;
2213;SDS011;1113;42.018;23.986;2023-05-29T14:14:46;3.30;;;2.40;;
2213;SDS011;1113;42.018;23.986;2023-05-29T14:17:13;4.93;;;2.40;;
2213;SDS011;1113;42.018;23.986;2023-05-29T14:19:40;5.67;;;2.93;;
2213;SDS011;1113;42.018;23.986;2023-05-29T14:22:07;5.73;;;3.40;;
2213;SDS011;1113;42.018;23.986;2023-05-29T14:24:35;4.07;;;2.33;;
2213;SDS011;1113;42.018;23.986;2023-05-29T14:27:04;3.40;;;2.20;;
2213;SDS011;1113;42.018;23.986;2023-05-29T14:29:31;2.70;;;1.93;;
2213;SDS011;1113;42.018;23.986;2023-05-29T14:31:58;5.20;;;2.53;;
2213;SDS011;1113;42.018;23.986;2023-05-29T14:34:25;5.40;;;3.67;;
2213;SDS011;1113;42.018;23.986;2023-05-29T14:36:52;3.00;;;2.00;;
2213;SDS011;1113;42.018;23.986;2023-05-29T14:39:18;5.73;;;1.90;;
2213;SDS011;1113;42.018;23.986;2023-05-29T14:41:47;7.30;;;3.67;;
2213;SDS011;1113;42.018;23.986;2023-05-29T14:44:14;3.80;;;3.20;;
2213;SDS011;1113;42.018;23.986;2023-05-29T14:46:41;5.17;;;2.83;;
2213;SDS011;1113;42.018;23.986;2023-05-29T14:49:07;4.67;;;3.23;;
2213;SDS011;1113;42.018;23.986;2023-05-29T14:51:34;5.93;;;4.67;;
2213;SDS011;1113;42.018;23.986;2023-05-29T14:54:02;10.53;;;5.23;;
2213;SDS011;1113;42.018;23.986;2023-05-29T14:56:28;7.00;;;4.20;;
2213;SDS011;1113;42.018;23.986;2023-05-29T14:58:57;5.97;;;3.50;;